Time;durP1;ratioP1;P1;durP2;ratioP2;P2;SDS_P1;SDS_P2;PMS_P1;PMS_P2;Temp;Humidity;BMP_temperature;BMP_pressure;BME280_temperature;BME280_humidity;BME280_pressure;Samples;Min_cycle;Max_cycle;Signal;HPM_P1;HPM_P2
2021/05/25 00:00:17;;;;;;;1.77;1.27;;;22.60;47.90;;;;;;5027514;28;20180;-86
2021/05/25 00:02:44;;;;;;;1.63;1.10;;;22.70;48.40;;;;;;5028981;28;20176;-86
2021/05/25 00:05:14;;;;;;;1.73;1.10;;;22.60;48.30;;;;;;5030084;28;20447;-86
2021/05/25 00:07:39;;;;;;;2.27;1.20;;;22.60;48.30;;;;;;5027085;28;20411;-86
2021/05/25 00:10:07;;;;;;;2.80;1.43;;;22.60;48.60;;;;;;5027007;28;20462;-86
2021/05/25 00:12:33;;;;;;;2.10;1.30;;;22.60;48.40;;;;;;5026568;28;20172;-86
2021/05/25 00:14:59;;;;;;;2.10;1.10;;;22.60;48.30;;;;;;5026862;28;20480;-87
2021/05/25 00:17:25;;;;;;;2.10;1.00;;;22.60;48.40;;;;;;5026749;28;20416;-86
2021/05/25 00:19:51;;;;;;;2.07;1.03;;;22.60;48.30;;;;;;5027082;28;20663;-86
2021/05/25 00:22:20;;;;;;;1.83;1.27;;;22.60;48.50;;;;;;5027034;28;20423;-86
2021/05/25 00:24:46;;;;;;;2.00;1.30;;;22.60;48.40;;;;;;5028299;28;20179;-86
2021/05/25 00:27:11;;;;;;;1.73;1.20;;;22.60;48.50;;;;;;5026907;28;20970;-86
2021/05/25 00:29:37;;;;;;;2.13;1.30;;;22.60;48.40;;;;;;5026412;28;20204;-86
2021/05/25 00:32:05;;;;;;;1.90;1.30;;;22.60;48.50;;;;;;5027127;28;20187;-86
2021/05/25 00:34:31;;;;;;;2.13;1.40;;;22.60;48.40;;;;;;5027557;28;20168;-86
2021/05/25 00:36:57;;;;;;;1.80;1.17;;;22.60;48.50;;;;;;5025970;28;20533;-86
2021/05/25 00:39:23;;;;;;;1.60;1.20;;;22.60;48.60;;;;;;5027633;28;20177;-86
2021/05/25 00:41:48;;;;;;;2.17;1.20;;;22.60;48.40;;;;;;5026798;28;20191;-86
2021/05/25 00:44:14;;;;;;;2.23;1.10;;;22.60;48.40;;;;;;5026690;28;20184;-86
2021/05/25 00:46:47;;;;;;;1.63;1.20;;;22.60;48.40;;;;;;5029776;28;20173;-85
2021/05/25 00:49:14;;;;;;;1.20;1.00;;;22.60;48.40;;;;;;5027876;28;20172;-86
2021/05/25 00:51:40;;;;;;;1.50;1.10;;;22.60;48.50;;;;;;5027688;28;20529;-86
2021/05/25 00:54:05;;;;;;;2.00;1.40;;;22.60;48.40;;;;;;5013564;28;20422;-87
2021/05/25 00:56:32;;;;;;;1.73;1.20;;;22.60;48.50;;;;;;5028254;28;20475;-87
2021/05/25 00:59:01;;;;;;;1.93;1.10;;;22.90;48.70;;;;;;5028765;28;20169;-86
2021/05/25 01:01:27;;;;;;;1.83;1.37;;;22.60;48.40;;;;;;5028257;28;20429;-86
2021/05/25 01:03:54;;;;;;;1.23;0.83;;;22.60;48.40;;;;;;5027407;28;20414;-86
2021/05/25 01:06:20;;;;;;;1.93;1.10;;;22.80;48.60;;;;;;5027067;28;20403;-86
2021/05/25 01:08:46;;;;;;;1.87;1.17;;;22.60;48.40;;;;;;5026364;28;20434;-86
2021/05/25 01:11:14;;;;;;;1.53;0.90;;;22.60;48.50;;;;;;5030655;28;20287;-86
2021/05/25 01:13:46;;;;;;;2.33;1.63;;;22.60;48.40;;;;;;5029829;28;20191;-86
2021/05/25 01:16:13;;;;;;;2.00;1.00;;;22.60;48.30;;;;;;5031137;28;20400;-87
2021/05/25 01:18:39;;;;;;;1.80;1.10;;;22.60;48.50;;;;;;5029504;28;20502;-87
2021/05/25 01:21:08;;;;;;;2.17;1.20;;;22.60;48.50;;;;;;5029950;28;20451;-87
2021/05/25 01:23:35;;;;;;;1.37;0.93;;;22.60;48.40;;;;;;5029435;28;20482;-87
2021/05/25 01:26:02;;;;;;;1.93;1.23;;;22.60;48.30;;;;;;5029206;28;20454;-87
2021/05/25 01:28:28;;;;;;;1.53;1.10;;;22.60;48.40;;;;;;5029794;28;20424;-87
2021/05/25 01:30:55;;;;;;;1.40;1.10;;;22.60;48.40;;;;;;5028976;28;20458;-86
2021/05/25 01:33:26;;;;;;;1.20;0.90;;;22.60;48.30;;;;;;5028780;28;20430;-86
2021/05/25 01:35:53;;;;;;;1.20;0.90;;;22.60;48.40;;;;;;5029579;28;20815;-86
2021/05/25 01:38:19;;;;;;;1.80;1.27;;;22.60;48.40;;;;;;5030064;28;20917;-86
2021/05/25 01:40:46;;;;;;;1.10;0.90;;;22.60;48.40;;;;;;5031504;28;20449;-86
2021/05/25 01:43:12;;;;;;;1.87;1.17;;;22.60;48.40;;;;;;5033356;28;20506;-86
2021/05/25 01:45:39;;;;;;;1.30;0.93;;;22.60;48.30;;;;;;5031548;28;20487;-86
2021/05/25 01:48:07;;;;;;;1.40;1.00;;;22.70;48.40;;;;;;5030327;28;20451;-86
2021/05/25 01:50:34;;;;;;;1.87;1.10;;;22.60;48.90;;;;;;5033080;28;20454;-86
2021/05/25 01:53:13;;;;;;;1.87;1.00;;;22.60;48.30;;;;;;5029742;28;20424;-86
2021/05/25 01:55:42;;;;;;;1.53;0.90;;;22.60;48.30;;;;;;5032901;28;20400;-86
2021/05/25 01:58:25;;;;;;;1.50;1.13;;;22.60;48.30;;;;;;5033179;28;20434;-83
2021/05/25 02:00:59;;;;;;;1.00;0.70;;;22.60;48.30;;;;;;5029450;28;20421;-83
2021/05/25 02:03:26;;;;;;;1.17;0.83;;;22.60;48.30;;;;;;5030216;28;20415;-84
2021/05/25 02:05:52;;;;;;;1.67;1.00;;;22.60;48.30;;;;;;5030062;28;20491;-84
2021/05/25 02:08:20;;;;;;;1.63;0.93;;;22.60;48.40;;;;;;5028432;28;20426;-84
2021/05/25 02:10:49;;;;;;;0.97;0.73;;;22.50;48.30;;;;;;5030163;28;20451;-84
2021/05/25 02:13:22;;;;;;;1.40;1.30;;;22.50;48.30;;;;;;5031591;28;20415;-83
2021/05/25 02:15:50;;;;;;;1.33;0.90;;;22.60;48.30;;;;;;5011882;28;20511;-84
2021/05/25 02:18:19;;;;;;;1.70;0.90;;;22.50;48.30;;;;;;5028095;28;20446;-84
2021/05/25 02:20:47;;;;;;;1.27;0.90;;;22.50;48.30;;;;;;5026822;28;20563;-84
2021/05/25 02:23:13;;;;;;;1.90;0.90;;;22.50;48.40;;;;;;5028444;28;20426;-84
2021/05/25 02:25:40;;;;;;;1.50;1.00;;;22.40;48.30;;;;;;5011399;28;20834;-84
2021/05/25 02:28:07;;;;;;;1.37;0.80;;;22.50;48.40;;;;;;5011229;28;20423;-84
2021/05/25 02:30:35;;;;;;;1.80;1.17;;;22.50;48.40;;;;;;5026810;28;20478;-84
2021/05/25 02:33:02;;;;;;;1.63;0.90;;;22.50;48.40;;;;;;5028518;28;20411;-84
2021/05/25 02:35:28;;;;;;;1.10;0.90;;;22.50;48.50;;;;;;5027609;28;20415;-84
2021/05/25 02:37:54;;;;;;;1.30;0.90;;;22.50;48.60;;;;;;5028657;28;20832;-84
2021/05/25 02:40:20;;;;;;;2.00;0.93;;;22.50;48.50;;;;;;5028485;28;20180;-84
2021/05/25 02:42:46;;;;;;;1.53;1.10;;;22.40;48.50;;;;;;5027792;28;20588;-84
2021/05/25 02:45:12;;;;;;;1.20;0.90;;;22.40;48.50;;;;;;5027576;28;20428;-84
2021/05/25 02:47:41;;;;;;;1.10;0.90;;;22.50;48.50;;;;;;5027276;28;20430;-84
2021/05/25 02:50:08;;;;;;;1.40;0.97;;;22.40;48.40;;;;;;5027722;28;20458;-84
2021/05/25 02:52:40;;;;;;;1.77;1.00;;;22.40;48.40;;;;;;5029295;28;20938;-84
2021/05/25 02:55:13;;;;;;;1.60;0.77;;;22.40;48.40;;;;;;5030314;28;20415;-84
2021/05/25 02:57:39;;;;;;;1.17;0.80;;;22.40;48.40;;;;;;5029226;28;20448;-84
2021/05/25 03:00:10;;;;;;;1.27;0.83;;;22.40;48.60;;;;;;5028567;28;20420;-84
2021/05/25 03:02:37;;;;;;;1.10;0.80;;;22.40;48.50;;;;;;5030843;28;20388;-84
2021/05/25 03:05:04;;;;;;;1.00;0.80;;;22.50;48.60;;;;;;5029020;28;20494;-83
2021/05/25 03:07:30;;;;;;;1.77;1.03;;;22.40;48.50;;;;;;5029288;28;20430;-83
2021/05/25 03:09:55;;;;;;;1.50;1.10;;;22.40;48.60;;;;;;5029732;28;20447;-84
2021/05/25 03:12:21;;;;;;;1.00;0.70;;;22.40;48.60;;;;;;5027216;28;20419;-84
2021/05/25 03:14:47;;;;;;;1.53;1.23;;;22.40;48.50;;;;;;5026590;28;20178;-84
2021/05/25 03:17:13;;;;;;;1.40;1.00;;;22.40;48.50;;;;;;5026814;28;20179;-84
2021/05/25 03:19:42;;;;;;;1.30;0.83;;;22.40;48.50;;;;;;5027557;28;20183;-83
2021/05/25 03:22:08;;;;;;;1.27;0.90;;;22.50;48.60;;;;;;5026382;28;20184;-84
2021/05/25 03:24:34;;;;;;;1.00;0.80;;;22.40;48.50;;;;;;5028888;28;20542;-84
2021/05/25 03:27:00;;;;;;;1.30;0.80;;;22.40;48.50;;;;;;5026769;28;20258;-84
2021/05/25 03:29:25;;;;;;;1.27;0.70;;;22.40;48.50;;;;;;5027810;28;20183;-84
2021/05/25 03:31:51;;;;;;;1.03;0.80;;;22.40;48.50;;;;;;5026573;28;20411;-84
2021/05/25 03:34:17;;;;;;;1.30;0.70;;;22.40;48.50;;;;;;5026188;28;20183;-84
2021/05/25 03:36:43;;;;;;;1.07;0.93;;;22.40;48.50;;;;;;5027643;28;20252;-84
2021/05/25 03:39:08;;;;;;;1.37;0.97;;;22.40;48.50;;;;;;5027145;28;20176;-84
2021/05/25 03:41:34;;;;;;;1.20;0.90;;;22.40;48.50;;;;;;5027120;28;20172;-84
2021/05/25 03:44:01;;;;;;;1.90;1.03;;;22.40;48.60;;;;;;5026831;28;20206;-84
2021/05/25 03:46:27;;;;;;;1.30;0.90;;;22.40;48.50;;;;;;5027764;28;20255;-84
2021/05/25 03:48:53;;;;;;;1.17;0.90;;;22.40;48.50;;;;;;5026214;28;20430;-83
2021/05/25 03:51:19;;;;;;;1.10;0.80;;;22.40;48.50;;;;;;5027931;28;20455;-84
2021/05/25 03:53:46;;;;;;;1.40;1.00;;;22.40;48.50;;;;;;5027759;28;20523;-84
2021/05/25 03:58:52;;;;;;;1.27;0.90;;;22.40;48.60;;;;;;5029660;28;20816;-84
2021/05/25 04:01:21;;;;;;;1.07;0.83;;;22.40;48.60;;;;;;5027749;28;20196;-84
2021/05/25 04:03:51;;;;;;;1.27;1.17;;;22.40;48.60;;;;;;5029322;28;20903;-84
2021/05/25 04:06:17;;;;;;;1.50;1.03;;;22.40;48.60;;;;;;5030510;28;20418;-84
2021/05/25 04:08:43;;;;;;;1.20;1.00;;;22.40;48.60;;;;;;5028751;28;20446;-84
2021/05/25 04:11:09;;;;;;;1.67;0.90;;;22.40;48.60;;;;;;5026211;28;20462;-84
2021/05/25 04:13:35;;;;;;;1.20;0.87;;;22.40;48.60;;;;;;5030048;28;20438;-84
2021/05/25 04:16:01;;;;;;;2.13;1.03;;;22.40;48.70;;;;;;5028888;28;20306;-84
2021/05/25 04:18:27;;;;;;;1.10;0.87;;;22.40;48.70;;;;;;5026871;28;20176;-84
2021/05/25 04:20:53;;;;;;;1.30;0.90;;;22.40;48.70;;;;;;5029696;28;20945;-83
2021/05/25 04:23:19;;;;;;;1.87;1.10;;;22.40;48.70;;;;;;5027458;28;20427;-84
2021/05/25 04:25:46;;;;;;;1.90;1.10;;;22.30;48.60;;;;;;5026271;28;20527;-84
2021/05/25 04:28:12;;;;;;;1.57;1.00;;;22.30;48.60;;;;;;5026122;28;20433;-85
2021/05/25 04:30:38;;;;;;;1.73;1.10;;;22.30;48.60;;;;;;5026933;28;20459;-85
2021/05/25 04:33:06;;;;;;;1.60;1.13;;;22.30;48.60;;;;;;5027794;28;20479;-85
2021/05/25 04:35:32;;;;;;;1.03;0.80;;;22.30;48.60;;;;;;5026386;28;20427;-85
2021/05/25 04:37:58;;;;;;;1.80;1.00;;;22.30;49.20;;;;;;5026714;28;20420;-84
2021/05/25 04:40:28;;;;;;;1.07;0.97;;;22.30;48.60;;;;;;5027427;28;20417;-85
2021/05/25 04:42:56;;;;;;;1.10;0.90;;;22.30;48.60;;;;;;5027382;28;20426;-85
2021/05/25 04:45:22;;;;;;;1.03;0.80;;;22.30;48.60;;;;;;5030668;28;20415;-85
2021/05/25 04:47:48;;;;;;;1.03;0.70;;;22.40;48.60;;;;;;5031222;28;20431;-85
2021/05/25 04:50:20;;;;;;;1.00;0.63;;;22.30;48.60;;;;;;5033249;28;20451;-85
2021/05/25 04:52:49;;;;;;;1.20;0.90;;;22.40;48.60;;;;;;5032862;28;20180;-88
2021/05/25 04:55:17;;;;;;;1.53;1.20;;;22.40;48.60;;;;;;5030123;28;20458;-84
2021/05/25 04:57:43;;;;;;;1.20;0.90;;;22.40;48.50;;;;;;5031589;28;20530;-84
2021/05/25 05:00:12;;;;;;;1.40;0.80;;;22.40;48.50;;;;;;5030292;28;20407;-85
2021/05/25 05:02:38;;;;;;;1.03;0.70;;;22.40;48.50;;;;;;5030819;28;20248;-84
2021/05/25 05:05:08;;;;;;;1.07;0.80;;;22.40;48.50;;;;;;5029779;28;20407;-84
2021/05/25 05:07:34;;;;;;;1.40;1.00;;;22.40;48.50;;;;;;5028488;28;20415;-83
2021/05/25 05:10:00;;;;;;;1.30;0.90;;;22.40;48.50;;;;;;5028769;28;20459;-84
2021/05/25 05:12:26;;;;;;;1.17;0.80;;;22.40;48.50;;;;;;5029232;28;20410;-84
2021/05/25 05:14:53;;;;;;;1.20;0.80;;;22.40;48.50;;;;;;5029085;28;20410;-85
2021/05/25 05:17:19;;;;;;;1.13;0.80;;;22.50;48.50;;;;;;5026660;28;20415;-85
2021/05/25 05:19:45;;;;;;;1.10;0.63;;;22.50;48.50;;;;;;5028427;28;20411;-86
2021/05/25 05:22:11;;;;;;;1.30;0.90;;;22.50;48.50;;;;;;5027805;28;20539;-85
2021/05/25 05:24:36;;;;;;;1.67;0.90;;;22.50;48.50;;;;;;5027857;28;20180;-86
2021/05/25 05:27:04;;;;;;;2.20;0.97;;;22.50;48.50;;;;;;5028563;28;20266;-85
2021/05/25 05:29:32;;;;;;;1.10;0.83;;;22.50;48.50;;;;;;5028702;28;20177;-85
2021/05/25 05:31:58;;;;;;;1.53;0.80;;;22.60;48.50;;;;;;5028763;28;20411;-84
2021/05/25 05:34:24;;;;;;;1.27;0.90;;;22.50;48.50;;;;;;5029153;28;20427;-85
2021/05/25 05:36:49;;;;;;;0.87;0.67;;;22.50;48.50;;;;;;5027905;28;20321;-85
2021/05/25 05:39:15;;;;;;;1.00;0.80;;;22.50;48.50;;;;;;5027430;28;20205;-86
2021/05/25 05:41:42;;;;;;;1.00;0.70;;;22.50;48.40;;;;;;5028119;28;20180;-85
2021/05/25 05:44:08;;;;;;;1.50;0.93;;;22.50;48.50;;;;;;5026738;28;20234;-85
2021/05/25 05:46:34;;;;;;;1.53;0.80;;;22.50;48.40;;;;;;5027338;28;20914;-86
2021/05/25 05:48:59;;;;;;;3.33;0.80;;;22.50;48.40;;;;;;5027239;28;20184;-86
2021/05/25 05:51:25;;;;;;;1.23;0.80;;;22.50;48.40;;;;;;5027297;28;20369;-88
2021/05/25 05:53:54;;;;;;;1.10;0.80;;;22.50;48.40;;;;;;5026261;28;20181;-87
2021/05/25 05:56:21;;;;;;;0.90;0.60;;;22.60;48.50;;;;;;5026518;28;20466;-87
2021/05/25 05:58:57;;;;;;;;;;;;;;;;;;;;;
2021/05/25 06:01:26;;;;;;;1.30;0.70;;;22.60;48.50;;;;;;5028080;28;20506;-87
2021/05/25 06:03:52;;;;;;;1.10;0.70;;;22.60;48.50;;;;;;5027506;28;20430;-88
2021/05/25 06:06:18;;;;;;;1.10;0.70;;;22.60;48.50;;;;;;5027165;28;20439;-85
2021/05/25 06:08:44;;;;;;;0.97;0.80;;;22.60;48.50;;;;;;5030500;28;20168;-85
2021/05/25 06:11:10;;;;;;;1.10;0.70;;;22.60;48.50;;;;;;5031071;28;20527;-85
2021/05/25 06:16:59;;;;;;;1.10;0.80;;;22.60;48.40;;;;;;5031722;28;20378;-85
2021/05/25 06:19:25;;;;;;;1.00;0.80;;;22.60;48.50;;;;;;5031257;28;20498;-85
2021/05/25 06:21:51;;;;;;;1.03;0.80;;;22.60;48.50;;;;;;5030591;28;20418;-85
2021/05/25 06:24:16;;;;;;;1.40;0.80;;;22.60;48.50;;;;;;5029636;28;20435;-85
2021/05/25 06:26:42;;;;;;;1.00;0.70;;;22.60;48.40;;;;;;5029754;28;20187;-87
2021/05/25 06:29:08;;;;;;;0.80;0.63;;;22.60;48.50;;;;;;5028197;28;20180;-85
2021/05/25 06:31:34;;;;;;;1.73;0.90;;;22.60;48.40;;;;;;5028531;28;20224;-87
2021/05/25 06:34:00;;;;;;;1.10;0.70;;;22.70;48.50;;;;;;5029817;28;20419;-85
2021/05/25 06:36:26;;;;;;;1.03;0.73;;;22.70;48.50;;;;;;5030146;28;20192;-85
2021/05/25 06:38:51;;;;;;;0.90;0.70;;;22.70;48.50;;;;;;5030091;28;20176;-85
2021/05/25 06:41:17;;;;;;;1.13;0.80;;;22.70;49.10;;;;;;5029648;28;20207;-85
2021/05/25 06:43:43;;;;;;;1.20;0.80;;;22.70;48.50;;;;;;5029702;28;20270;-85
2021/05/25 06:46:09;;;;;;;1.30;0.80;;;22.70;48.50;;;;;;5031117;28;20180;-85
2021/05/25 06:48:35;;;;;;;1.00;0.70;;;22.70;48.50;;;;;;5012885;28;20627;-85
2021/05/25 06:51:06;;;;;;;0.90;0.80;;;22.70;48.50;;;;;;5029223;28;20469;-85
2021/05/25 06:53:34;;;;;;;1.00;0.70;;;22.70;48.50;;;;;;5029876;28;20173;-85
2021/05/25 06:56:03;;;;;;;1.73;1.10;;;22.70;48.50;;;;;;5030361;28;20487;-85
2021/05/25 06:58:29;;;;;;;1.47;0.80;;;22.70;48.50;;;;;;5029948;28;20435;-84
2021/05/25 07:00:54;;;;;;;1.10;0.70;;;22.70;48.50;;;;;;5029134;28;20435;-83
2021/05/25 07:03:20;;;;;;;1.23;0.70;;;22.70;49.00;;;;;;5029795;28;20227;-85
2021/05/25 07:05:46;;;;;;;1.30;1.20;;;22.70;48.50;;;;;;5029901;28;20709;-84
2021/05/25 07:08:12;;;;;;;1.90;0.90;;;22.70;48.50;;;;;;5030327;28;20179;-84
2021/05/25 07:10:37;;;;;;;1.20;0.80;;;22.70;48.50;;;;;;5030061;28;20200;-85
2021/05/25 07:13:03;;;;;;;1.13;1.00;;;22.70;48.40;;;;;;5030530;28;20199;-85
2021/05/25 07:15:29;;;;;;;1.07;0.87;;;22.70;48.40;;;;;;5029962;28;20237;-83
2021/05/25 07:17:58;;;;;;;1.20;0.80;;;22.70;48.40;;;;;;5028115;28;20255;-83
2021/05/25 07:20:25;;;;;;;1.33;0.70;;;22.70;48.40;;;;;;5028776;28;20188;-83
2021/05/25 07:22:54;;;;;;;1.47;1.00;;;22.80;48.50;;;;;;5028291;28;20419;-83
2021/05/25 07:25:25;;;;;;;1.40;0.90;;;22.70;48.40;;;;;;5028419;28;20423;-83
2021/05/25 07:27:54;;;;;;;0.90;0.60;;;22.70;48.40;;;;;;5027368;28;20423;-87
2021/05/25 07:30:20;;;;;;;0.90;0.70;;;22.80;48.50;;;;;;5027178;28;20489;-86
2021/05/25 07:32:46;;;;;;;1.20;0.70;;;22.70;48.40;;;;;;5026207;28;20442;-87
2021/05/25 07:35:13;;;;;;;1.83;0.70;;;22.70;48.40;;;;;;5026670;28;20415;-84
2021/05/25 07:37:40;;;;;;;0.90;0.70;;;22.70;48.50;;;;;;5028038;28;20199;-82
2021/05/25 07:40:07;;;;;;;1.13;0.90;;;22.70;48.50;;;;;;5029130;28;20446;-81
2021/05/25 07:42:33;;;;;;;1.20;0.73;;;22.70;48.50;;;;;;5027996;28;20427;-82
2021/05/25 07:44:59;;;;;;;1.00;0.70;;;22.80;48.60;;;;;;5028039;28;20423;-82
2021/05/25 07:47:29;;;;;;;1.00;0.80;;;22.80;48.60;;;;;;5029775;28;20422;-82
2021/05/25 07:49:55;;;;;;;1.77;0.70;;;22.80;48.60;;;;;;5028410;28;20200;-82
2021/05/25 07:52:23;;;;;;;1.40;1.00;;;22.80;48.60;;;;;;5028067;28;20427;-82
2021/05/25 07:54:49;;;;;;;1.43;0.80;;;22.80;48.60;;;;;;5029703;28;20411;-83
2021/05/25 07:57:15;;;;;;;1.07;0.70;;;22.80;48.60;;;;;;5027404;28;20458;-82
2021/05/25 07:59:42;;;;;;;1.13;0.70;;;22.80;48.60;;;;;;5028198;28;20184;-82
2021/05/25 08:02:11;;;;;;;2.03;1.00;;;22.80;48.60;;;;;;5028650;28;20434;-82
2021/05/25 08:04:37;;;;;;;2.27;0.87;;;22.80;48.60;;;;;;5027291;28;20458;-83
2021/05/25 08:07:03;;;;;;;2.70;1.00;;;22.80;48.60;;;;;;5029142;28;20916;-83
2021/05/25 08:09:29;;;;;;;2.67;1.73;;;22.80;48.60;;;;;;5029160;28;20179;-84
2021/05/25 08:11:55;;;;;;;1.50;0.60;;;22.80;48.70;;;;;;5029340;28;20414;-83
2021/05/25 08:14:21;;;;;;;1.77;1.00;;;22.80;48.70;;;;;;5029222;28;20428;-83
2021/05/25 08:16:47;;;;;;;4.37;1.30;;;22.80;48.60;;;;;;5027899;28;20191;-83
2021/05/25 08:21:42;;;;;;;1.20;1.00;;;22.90;48.70;;;;;;5053908;28;20262;-83
2021/05/25 08:24:08;;;;;;;2.33;1.20;;;22.90;48.70;;;;;;5053480;28;21039;-83
2021/05/25 08:26:36;;;;;;;2.20;0.80;;;22.80;48.60;;;;;;5051802;28;20415;-84
2021/05/25 08:29:06;;;;;;;4.00;0.80;;;22.90;48.70;;;;;;5052431;28;20509;-84
2021/05/25 08:31:32;;;;;;;2.43;1.17;;;22.90;48.60;;;;;;5051525;28;21005;-83
2021/05/25 08:33:58;;;;;;;2.50;0.90;;;22.90;48.70;;;;;;5051377;28;20434;-84
2021/05/25 08:36:23;;;;;;;1.90;0.80;;;22.90;48.60;;;;;;5051817;28;20460;-84
2021/05/25 08:38:49;;;;;;;2.10;0.70;;;22.90;48.60;;;;;;5050604;28;20634;-84
2021/05/25 08:41:15;;;;;;;2.07;0.80;;;22.90;48.60;;;;;;5051618;28;20179;-84
2021/05/25 08:43:41;;;;;;;2.93;1.07;;;22.90;48.60;;;;;;5050107;28;20176;-84
2021/05/25 08:46:08;;;;;;;2.70;1.47;;;22.90;48.60;;;;;;5051791;28;20179;-85
2021/05/25 08:48:41;;;;;;;3.13;0.90;;;22.90;48.60;;;;;;5049837;28;20457;-83
2021/05/25 08:51:07;;;;;;;1.90;0.97;;;23.00;48.70;;;;;;5050056;28;20469;-83
2021/05/25 08:53:32;;;;;;;3.33;1.00;;;23.00;48.70;;;;;;5052372;28;20410;-83
2021/05/25 08:56:23;;;;;;;1.20;1.00;;;23.00;48.70;;;;;;5052727;28;20417;-82
2021/05/25 08:58:49;;;;;;;2.07;0.90;;;23.00;48.70;;;;;;5051788;28;20231;-82
2021/05/25 09:01:15;;;;;;;2.80;1.00;;;22.90;48.70;;;;;;5051713;28;20418;-82
2021/05/25 09:03:56;;;;;;;2.23;1.47;;;22.90;48.50;;;;;;5052720;28;20608;-82
2021/05/25 09:06:40;;;;;;;1.63;0.80;;;22.90;48.10;;;;;;5052313;28;20262;-82
2021/05/25 09:09:08;;;;;;;0.90;0.70;;;22.90;48.20;;;;;;5053358;28;20429;-82
2021/05/25 09:11:51;;;;;;;1.10;0.70;;;22.90;48.30;;;;;;5051628;28;20474;-82
2021/05/25 09:14:18;;;;;;;1.20;0.83;;;22.90;48.40;;;;;;5051759;28;20402;-82
2021/05/25 09:16:47;;;;;;;1.67;0.90;;;22.90;48.50;;;;;;5050348;28;20540;-82
2021/05/25 09:19:13;;;;;;;2.83;0.80;;;22.90;48.50;;;;;;5050250;28;20414;-82
2021/05/25 09:21:39;;;;;;;1.70;1.20;;;22.90;48.50;;;;;;5051647;28;20450;-82
2021/05/25 09:24:08;;;;;;;1.30;0.80;;;22.90;48.50;;;;;;5051441;28;20441;-83
2021/05/25 09:26:37;;;;;;;1.73;0.80;;;22.90;48.50;;;;;;5051705;28;20194;-83
2021/05/25 09:29:06;;;;;;;1.30;0.80;;;22.90;48.50;;;;;;5050906;28;20640;-83
2021/05/25 09:31:46;;;;;;;1.00;0.80;;;22.90;48.50;;;;;;5051777;28;20454;-82
2021/05/25 09:34:30;;;;;;;1.20;0.87;;;22.90;48.50;;;;;;5049519;28;20791;-83
2021/05/25 09:37:00;;;;;;;1.00;0.70;;;22.90;48.50;;;;;;5049907;28;20418;-83
2021/05/25 09:39:27;;;;;;;1.10;0.70;;;22.90;48.50;;;;;;5049951;28;20422;-82
2021/05/25 09:42:17;;;;;;;1.03;0.70;;;22.90;48.50;;;;;;5050696;28;20444;-83
2021/05/25 09:45:09;;;;;;;1.83;0.83;;;22.90;48.50;;;;;;5050197;28;20410;-83
2021/05/25 09:47:46;;;;;;;2.70;1.00;;;22.90;48.50;;;;;;5031282;28;20418;-83
2021/05/25 09:50:15;;;;;;;1.70;1.03;;;22.90;48.50;;;;;;5049937;28;20461;-83
2021/05/25 09:53:08;;;;;;;1.50;0.90;;;22.90;48.50;;;;;;5051072;28;20909;-83
2021/05/25 09:55:50;;;;;;;1.90;0.77;;;22.90;48.50;;;;;;5049967;28;20441;-84
2021/05/25 09:58:17;;;;;;;1.87;1.00;;;22.90;48.50;;;;;;5049797;28;20450;-84
2021/05/25 10:00:46;;;;;;;2.10;0.80;;;22.90;48.60;;;;;;5049395;28;20414;-82
2021/05/25 10:03:16;;;;;;;1.27;0.77;;;22.90;48.60;;;;;;5028692;28;20463;-83
2021/05/25 10:05:51;;;;;;;2.03;1.37;;;22.90;48.60;;;;;;5028690;28;20415;-84
2021/05/25 10:08:23;;;;;;;1.97;0.80;;;22.90;48.60;;;;;;5029563;28;20403;-84
2021/05/25 10:10:51;;;;;;;1.10;0.77;;;22.90;48.60;;;;;;5029298;28;20973;-83
2021/05/25 10:13:17;;;;;;;1.97;0.90;;;22.90;48.60;;;;;;5029905;28;20426;-83
2021/05/25 10:15:47;;;;;;;1.20;0.70;;;22.80;48.50;;;;;;5028967;28;20419;-83
2021/05/25 10:20:42;;;;;;;1.97;0.90;;;22.90;48.50;;;;;;5029262;28;20894;-83
2021/05/25 10:23:20;;;;;;;1.43;0.80;;;22.90;48.50;;;;;;5033917;28;20418;-84
2021/05/25 10:25:57;;;;;;;1.20;0.90;;;22.90;48.50;;;;;;5014912;28;20434;-84
2021/05/25 10:28:26;;;;;;;1.50;0.80;;;22.90;48.50;;;;;;5059994;28;20530;-84
2021/05/25 10:30:56;;;;;;;1.57;0.67;;;22.90;48.50;;;;;;5012642;28;20564;-83
2021/05/25 10:33:32;;;;;;;1.30;0.70;;;22.90;48.60;;;;;;5057758;28;20427;-84
2021/05/25 10:36:02;;;;;;;1.30;0.70;;;22.90;48.50;;;;;;5028003;28;20426;-84
2021/05/25 10:38:33;;;;;;;1.23;0.67;;;22.90;48.60;;;;;;5026964;28;20420;-84
2021/05/25 10:41:04;;;;;;;1.33;0.70;;;22.90;48.50;;;;;;5027706;28;20454;-83
2021/05/25 10:43:30;;;;;;;1.50;1.00;;;22.90;48.60;;;;;;5060820;28;20518;-85
2021/05/25 10:46:12;;;;;;;1.63;0.80;;;22.90;48.60;;;;;;5060631;28;20416;-84
2021/05/25 10:49:15;;;;;;;1.37;0.80;;;22.90;48.50;;;;;;5028751;28;20263;-84
2021/05/25 10:51:51;;;;;;;1.00;0.60;;;22.90;48.50;;;;;;5050481;28;20464;-87
2021/05/25 10:54:40;;;;;;;1.20;0.80;;;22.90;48.60;;;;;;5030884;28;20449;-83
2021/05/25 10:57:35;;;;;;;1.67;0.70;;;22.90;48.60;;;;;;5028774;28;20435;-83
2021/05/25 11:00:15;;;;;;;1.97;1.00;;;22.90;48.60;;;;;;5011175;28;20436;-82
2021/05/25 11:02:58;;;;;;;1.30;1.10;;;22.90;48.70;;;;;;5027538;28;20426;-83
2021/05/25 11:05:27;;;;;;;3.57;1.13;;;22.90;49.20;;;;;;5028284;28;20419;-85
2021/05/25 11:08:18;;;;;;;1.67;0.90;;;22.90;48.70;;;;;;5062386;28;20764;-85
2021/05/25 11:11:23;;;;;;;1.20;0.70;;;22.90;48.60;;;;;;5028889;28;20455;-85
2021/05/25 11:13:52;;;;;;;1.53;0.80;;;22.90;48.60;;;;;;5018943;28;20427;-85
2021/05/25 11:16:33;;;;;;;2.03;0.90;;;22.90;48.70;;;;;;5028814;28;20411;-84
2021/05/25 11:19:31;;;;;;;2.00;0.80;;;22.90;48.60;;;;;;5029801;28;20408;-85
2021/05/25 11:24:37;;;;;;;1.27;0.80;;;22.90;48.70;;;;;;5031256;28;20411;-83
2021/05/25 11:27:32;;;;;;;1.20;0.80;;;22.90;48.60;;;;;;5030183;28;20410;-88
2021/05/25 11:30:05;;;;;;;1.70;1.37;;;22.90;48.60;;;;;;5061738;28;20451;-82
2021/05/25 11:32:42;;;;;;;1.10;0.70;;;22.90;48.70;;;;;;5029277;28;20399;-85
2021/05/25 11:35:10;;;;;;;1.40;0.77;;;22.90;48.70;;;;;;5027883;28;20413;-83
2021/05/25 11:37:42;;;;;;;1.77;0.80;;;22.90;48.70;;;;;;5027819;28;20514;-83
2021/05/25 11:40:20;;;;;;;2.47;0.80;;;23.00;48.70;;;;;;5061562;28;20415;-84
2021/05/25 11:42:48;;;;;;;1.20;0.87;;;23.00;48.70;;;;;;5029347;28;20477;-84
2021/05/25 11:55:44;;;;;;;1.77;0.97;;;23.00;48.70;;;;;;4998802;28;20411;-84
2021/05/25 11:58:12;;;;;;;1.27;0.80;;;23.00;48.70;;;;;;5028758;28;20477;-83
2021/05/25 12:01:32;;;;;;;2.30;0.83;;;23.00;48.80;;;;;;5062619;28;20478;-83
2021/05/25 12:10:43;;;;;;;0.90;0.60;;;23.00;48.80;;;;;;5061661;28;20456;-85
2021/05/25 12:13:20;;;;;;;1.00;0.63;;;23.00;48.80;;;;;;5029366;28;20419;-85
2021/05/25 12:16:02;;;;;;;1.63;0.90;;;23.00;48.80;;;;;;5027287;28;20419;-84
2021/05/25 12:18:36;;;;;;;6.13;1.00;;;23.00;48.80;;;;;;5026869;28;20469;-83
2021/05/25 12:21:04;;;;;;;2.40;0.80;;;23.00;48.80;;;;;;5027559;28;20765;-82
2021/05/25 12:23:29;;;;;;;1.87;1.10;;;23.00;48.80;;;;;;5028099;28;20406;-82
2021/05/25 12:25:57;;;;;;;2.90;1.20;;;23.00;48.80;;;;;;5029019;28;20415;-82
2021/05/25 12:28:30;;;;;;;1.10;0.83;;;23.00;48.70;;;;;;5030798;28;20526;-82
2021/05/25 12:31:04;;;;;;;1.13;0.70;;;23.00;48.70;;;;;;5030047;28;20451;-85
2021/05/25 12:33:34;;;;;;;0.80;0.60;;;23.00;48.70;;;;;;5029128;28;20396;-84
2021/05/25 12:36:21;;;;;;;1.33;0.80;;;23.00;48.70;;;;;;5028603;28;20416;-83
2021/05/25 12:38:54;;;;;;;1.30;0.80;;;23.10;48.80;;;;;;5027424;28;20418;-83
2021/05/25 12:41:20;;;;;;;3.40;1.27;;;23.10;48.80;;;;;;5060023;28;20468;-82
2021/05/25 12:43:46;;;;;;;1.57;0.90;;;23.10;48.80;;;;;;5029695;28;20889;-82
2021/05/25 12:46:12;;;;;;;1.47;0.83;;;23.10;48.80;;;;;;5028029;28;20909;-83
2021/05/25 12:48:43;;;;;;;1.57;0.83;;;23.10;48.80;;;;;;5010924;28;20432;-83
2021/05/25 12:51:11;;;;;;;3.17;1.20;;;23.10;48.80;;;;;;5010352;28;20464;-82
2021/05/25 12:53:59;;;;;;;2.20;0.80;;;23.10;48.80;;;;;;5009758;28;20440;-82
2021/05/25 12:56:29;;;;;;;1.20;0.97;;;23.10;48.80;;;;;;5007275;28;20428;-84
2021/05/25 12:58:58;;;;;;;1.30;0.80;;;23.10;48.80;;;;;;5041991;28;20432;-82
2021/05/25 13:01:34;;;;;;;1.40;0.80;;;23.10;48.80;;;;;;5010621;28;20431;-82
2021/05/25 13:04:06;;;;;;;1.00;0.70;;;23.10;49.30;;;;;;5042925;28;20427;-82
2021/05/25 13:07:01;;;;;;;2.00;1.00;;;23.10;48.80;;;;;;5013766;28;20437;-83
2021/05/25 13:09:42;;;;;;;1.67;0.97;;;23.10;48.80;;;;;;5012445;28;20421;-86
2021/05/25 13:12:16;;;;;;;1.20;0.90;;;23.10;48.80;;;;;;5012202;28;20791;-84
2021/05/25 13:14:47;;;;;;;1.40;0.83;;;23.10;48.80;;;;;;5011365;28;20408;-86
2021/05/25 13:17:17;;;;;;;2.80;1.00;;;23.10;48.80;;;;;;5010450;28;20466;-84
2021/05/25 13:19:47;;;;;;;1.60;0.77;;;23.10;48.80;;;;;;5012425;28;20423;-85
2021/05/25 13:22:35;;;;;;;1.80;0.97;;;23.10;48.80;;;;;;5045280;28;20501;-84
2021/05/25 13:25:06;;;;;;;1.40;0.73;;;23.10;48.80;;;;;;5043892;28;20443;-84
2021/05/25 13:27:37;;;;;;;1.23;0.80;;;23.10;48.80;;;;;;5024997;28;20430;-83
2021/05/25 13:30:12;;;;;;;3.97;1.20;;;23.10;48.80;;;;;;5062137;28;20459;-83